sensor_id;sensor_type;location;lat;lon;timestamp;temperature;humidity
45044;DHT22;30784;48.490;9.688;2024-03-08T00:00:29;4.30;66.00
45044;DHT22;30784;48.490;9.688;2024-03-08T00:02:58;4.30;66.10
45044;DHT22;30784;48.490;9.688;2024-03-08T00:05:24;4.30;66.20
45044;DHT22;30784;48.490;9.688;2024-03-08T00:07:49;4.20;66.10
45044;DHT22;30784;48.490;9.688;2024-03-08T00:10:18;4.30;66.20
45044;DHT22;30784;48.490;9.688;2024-03-08T00:12:46;4.20;66.20
45044;DHT22;30784;48.490;9.688;2024-03-08T00:15:13;4.20;66.20
45044;DHT22;30784;48.490;9.688;2024-03-08T00:17:40;4.20;66.30
45044;DHT22;30784;48.490;9.688;2024-03-08T00:20:06;4.20;66.50
45044;DHT22;30784;48.490;9.688;2024-03-08T00:22:37;4.20;66.50
45044;DHT22;30784;48.490;9.688;2024-03-08T00:25:06;4.20;66.50
45044;DHT22;30784;48.490;9.688;2024-03-08T00:27:34;4.20;66.50
45044;DHT22;30784;48.490;9.688;2024-03-08T00:30:00;4.20;66.50
45044;DHT22;30784;48.490;9.688;2024-03-08T00:32:26;4.20;66.50
45044;DHT22;30784;48.490;9.688;2024-03-08T00:34:53;4.20;66.40
45044;DHT22;30784;48.490;9.688;2024-03-08T00:37:20;4.20;66.50
45044;DHT22;30784;48.490;9.688;2024-03-08T00:39:50;4.20;66.40
45044;DHT22;30784;48.490;9.688;2024-03-08T00:42:19;4.20;66.40
45044;DHT22;30784;48.490;9.688;2024-03-08T00:44:45;4.20;66.50
45044;DHT22;30784;48.490;9.688;2024-03-08T00:47:11;4.10;66.30
45044;DHT22;30784;48.490;9.688;2024-03-08T00:49:36;4.20;66.40
45044;DHT22;30784;48.490;9.688;2024-03-08T00:52:04;4.10;66.40
45044;DHT22;30784;48.490;9.688;2024-03-08T00:54:32;4.10;66.50
45044;DHT22;30784;48.490;9.688;2024-03-08T00:56:58;4.10;66.50
45044;DHT22;30784;48.490;9.688;2024-03-08T00:59:23;4.10;66.40
45044;DHT22;30784;48.490;9.688;2024-03-08T01:01:49;4.10;66.50
45044;DHT22;30784;48.490;9.688;2024-03-08T01:04:14;4.10;66.50
45044;DHT22;30784;48.490;9.688;2024-03-08T01:06:40;4.00;66.60
45044;DHT22;30784;48.490;9.688;2024-03-08T01:09:05;4.00;66.60
45044;DHT22;30784;48.490;9.688;2024-03-08T01:11:34;4.00;66.60
45044;DHT22;30784;48.490;9.688;2024-03-08T01:14:00;4.00;66.60
45044;DHT22;30784;48.490;9.688;2024-03-08T01:16:26;4.00;66.60
45044;DHT22;30784;48.490;9.688;2024-03-08T01:18:52;4.00;66.70
45044;DHT22;30784;48.490;9.688;2024-03-08T01:21:17;4.00;66.80
45044;DHT22;30784;48.490;9.688;2024-03-08T01:24:01;3.90;66.70
45044;DHT22;30784;48.490;9.688;2024-03-08T01:26:28;3.90;66.60
45044;DHT22;30784;48.490;9.688;2024-03-08T01:28:54;3.90;66.70
45044;DHT22;30784;48.490;9.688;2024-03-08T01:31:19;3.90;66.70
45044;DHT22;30784;48.490;9.688;2024-03-08T01:33:45;3.90;66.80
45044;DHT22;30784;48.490;9.688;2024-03-08T01:36:10;3.90;66.70
45044;DHT22;30784;48.490;9.688;2024-03-08T01:38:36;3.90;66.80
45044;DHT22;30784;48.490;9.688;2024-03-08T01:41:01;3.90;66.70
45044;DHT22;30784;48.490;9.688;2024-03-08T01:43:29;3.90;66.70
45044;DHT22;30784;48.490;9.688;2024-03-08T01:45:58;3.80;66.60
45044;DHT22;30784;48.490;9.688;2024-03-08T01:48:28;3.80;66.60
45044;DHT22;30784;48.490;9.688;2024-03-08T01:50:55;3.80;66.60
45044;DHT22;30784;48.490;9.688;2024-03-08T01:53:21;3.80;66.60
45044;DHT22;30784;48.490;9.688;2024-03-08T01:55:48;3.80;66.50
45044;DHT22;30784;48.490;9.688;2024-03-08T01:58:15;3.80;66.60
45044;DHT22;30784;48.490;9.688;2024-03-08T02:00:46;3.70;66.60
45044;DHT22;30784;48.490;9.688;2024-03-08T02:03:17;3.70;66.60
45044;DHT22;30784;48.490;9.688;2024-03-08T02:05:43;3.70;66.70
45044;DHT22;30784;48.490;9.688;2024-03-08T02:08:11;3.70;66.70
45044;DHT22;30784;48.490;9.688;2024-03-08T02:10:41;3.70;66.70
45044;DHT22;30784;48.490;9.688;2024-03-08T02:13:10;3.70;66.70
45044;DHT22;30784;48.490;9.688;2024-03-08T02:18:18;3.70;66.70
45044;DHT22;30784;48.490;9.688;2024-03-08T02:20:45;3.70;66.80
45044;DHT22;30784;48.490;9.688;2024-03-08T02:23:13;3.60;66.80
45044;DHT22;30784;48.490;9.688;2024-03-08T02:25:39;3.60;66.80
45044;DHT22;30784;48.490;9.688;2024-03-08T02:28:04;3.60;66.80
45044;DHT22;30784;48.490;9.688;2024-03-08T02:30:30;3.60;66.80
45044;DHT22;30784;48.490;9.688;2024-03-08T02:32:56;3.60;66.90
45044;DHT22;30784;48.490;9.688;2024-03-08T02:35:21;3.60;66.80
45044;DHT22;30784;48.490;9.688;2024-03-08T02:37:47;3.60;66.80
45044;DHT22;30784;48.490;9.688;2024-03-08T02:40:13;3.50;66.80
45044;DHT22;30784;48.490;9.688;2024-03-08T02:42:39;3.50;66.90
45044;DHT22;30784;48.490;9.688;2024-03-08T02:45:05;3.50;67.40
45044;DHT22;30784;48.490;9.688;2024-03-08T02:47:31;3.50;67.00
45044;DHT22;30784;48.490;9.688;2024-03-08T02:49:57;3.40;67.00
45044;DHT22;30784;48.490;9.688;2024-03-08T02:52:22;3.40;67.00
45044;DHT22;30784;48.490;9.688;2024-03-08T02:54:48;3.40;67.20
45044;DHT22;30784;48.490;9.688;2024-03-08T02:57:14;3.40;67.30
45044;DHT22;30784;48.490;9.688;2024-03-08T02:59:40;3.40;67.20
45044;DHT22;30784;48.490;9.688;2024-03-08T03:02:06;3.40;67.30
45044;DHT22;30784;48.490;9.688;2024-03-08T03:04:32;3.30;67.20
45044;DHT22;30784;48.490;9.688;2024-03-08T03:07:00;3.40;67.30
45044;DHT22;30784;48.490;9.688;2024-03-08T03:09:26;3.40;67.30
45044;DHT22;30784;48.490;9.688;2024-03-08T03:11:53;3.30;67.20
45044;DHT22;30784;48.490;9.688;2024-03-08T03:14:21;3.40;67.20
45044;DHT22;30784;48.490;9.688;2024-03-08T03:16:46;3.40;67.20
45044;DHT22;30784;48.490;9.688;2024-03-08T03:19:12;3.30;67.20
45044;DHT22;30784;48.490;9.688;2024-03-08T03:21:37;3.30;67.30
45044;DHT22;30784;48.490;9.688;2024-03-08T03:24:04;3.30;67.30
45044;DHT22;30784;48.490;9.688;2024-03-08T03:26:30;3.30;67.30
45044;DHT22;30784;48.490;9.688;2024-03-08T03:28:56;3.30;67.40
45044;DHT22;30784;48.490;9.688;2024-03-08T03:31:22;3.30;67.40
45044;DHT22;30784;48.490;9.688;2024-03-08T03:33:49;3.30;67.50
45044;DHT22;30784;48.490;9.688;2024-03-08T03:36:17;3.30;67.50
45044;DHT22;30784;48.490;9.688;2024-03-08T03:38:43;3.20;67.50
45044;DHT22;30784;48.490;9.688;2024-03-08T03:41:08;3.30;67.40
45044;DHT22;30784;48.490;9.688;2024-03-08T03:43:37;3.20;67.40
45044;DHT22;30784;48.490;9.688;2024-03-08T03:46:07;3.20;67.50
45044;DHT22;30784;48.490;9.688;2024-03-08T03:48:33;3.20;67.50
45044;DHT22;30784;48.490;9.688;2024-03-08T03:50:59;3.20;67.50
45044;DHT22;30784;48.490;9.688;2024-03-08T03:53:24;3.20;67.60
45044;DHT22;30784;48.490;9.688;2024-03-08T03:55:51;3.20;67.70
45044;DHT22;30784;48.490;9.688;2024-03-08T03:58:16;3.20;67.70
45044;DHT22;30784;48.490;9.688;2024-03-08T04:00:48;3.20;67.60
45044;DHT22;30784;48.490;9.688;2024-03-08T04:03:13;3.20;67.60
45044;DHT22;30784;48.490;9.688;2024-03-08T04:05:39;3.20;67.70
45044;DHT22;30784;48.490;9.688;2024-03-08T04:08:05;3.20;67.60
45044;DHT22;30784;48.490;9.688;2024-03-08T04:10:31;3.10;67.60
45044;DHT22;30784;48.490;9.688;2024-03-08T04:12:57;3.10;67.70
45044;DHT22;30784;48.490;9.688;2024-03-08T04:15:22;3.20;67.70
45044;DHT22;30784;48.490;9.688;2024-03-08T04:17:48;3.10;67.70
45044;DHT22;30784;48.490;9.688;2024-03-08T04:20:13;3.20;67.70
45044;DHT22;30784;48.490;9.688;2024-03-08T04:22:40;3.10;67.70
45044;DHT22;30784;48.490;9.688;2024-03-08T04:25:06;3.10;67.70
45044;DHT22;30784;48.490;9.688;2024-03-08T04:27:33;3.10;67.60
45044;DHT22;30784;48.490;9.688;2024-03-08T04:29:58;3.10;67.60
45044;DHT22;30784;48.490;9.688;2024-03-08T04:32:24;3.10;67.70
45044;DHT22;30784;48.490;9.688;2024-03-08T04:34:50;3.10;67.70
45044;DHT22;30784;48.490;9.688;2024-03-08T04:37:16;3.10;67.90
45044;DHT22;30784;48.490;9.688;2024-03-08T04:39:46;3.00;67.80
45044;DHT22;30784;48.490;9.688;2024-03-08T04:42:12;3.00;67.80
45044;DHT22;30784;48.490;9.688;2024-03-08T04:44:39;3.00;67.80
45044;DHT22;30784;48.490;9.688;2024-03-08T04:47:05;3.00;67.90
45044;DHT22;30784;48.490;9.688;2024-03-08T04:49:33;3.00;68.00
45044;DHT22;30784;48.490;9.688;2024-03-08T04:52:04;3.00;68.00
45044;DHT22;30784;48.490;9.688;2024-03-08T04:54:31;3.00;68.00
45044;DHT22;30784;48.490;9.688;2024-03-08T04:56:57;3.00;68.00
45044;DHT22;30784;48.490;9.688;2024-03-08T04:59:22;3.00;67.90
45044;DHT22;30784;48.490;9.688;2024-03-08T05:01:49;3.00;68.00
45044;DHT22;30784;48.490;9.688;2024-03-08T05:04:14;3.00;68.00
45044;DHT22;30784;48.490;9.688;2024-03-08T05:06:40;2.90;67.90
45044;DHT22;30784;48.490;9.688;2024-03-08T05:09:06;3.00;68.00
45044;DHT22;30784;48.490;9.688;2024-03-08T05:11:42;2.90;68.10
45044;DHT22;30784;48.490;9.688;2024-03-08T05:14:09;2.90;68.10
45044;DHT22;30784;48.490;9.688;2024-03-08T05:16:35;2.90;68.20
45044;DHT22;30784;48.490;9.688;2024-03-08T05:19:01;2.90;68.20
45044;DHT22;30784;48.490;9.688;2024-03-08T05:21:27;2.90;68.30
45044;DHT22;30784;48.490;9.688;2024-03-08T05:23:54;2.90;68.30
45044;DHT22;30784;48.490;9.688;2024-03-08T05:26:20;2.90;68.30
45044;DHT22;30784;48.490;9.688;2024-03-08T05:28:45;2.90;68.30
45044;DHT22;30784;48.490;9.688;2024-03-08T05:31:21;2.80;68.30
45044;DHT22;30784;48.490;9.688;2024-03-08T05:33:49;2.90;68.40
45044;DHT22;30784;48.490;9.688;2024-03-08T05:36:15;2.80;68.40
45044;DHT22;30784;48.490;9.688;2024-03-08T05:38:43;2.80;68.50
45044;DHT22;30784;48.490;9.688;2024-03-08T05:41:12;2.80;68.50
45044;DHT22;30784;48.490;9.688;2024-03-08T05:43:38;2.80;68.60
45044;DHT22;30784;48.490;9.688;2024-03-08T05:46:07;2.80;68.70
45044;DHT22;30784;48.490;9.688;2024-03-08T05:48:32;2.70;68.70
45044;DHT22;30784;48.490;9.688;2024-03-08T05:51:00;2.70;68.80
45044;DHT22;30784;48.490;9.688;2024-03-08T05:53:25;2.70;68.80
45044;DHT22;30784;48.490;9.688;2024-03-08T05:55:52;2.70;68.80
45044;DHT22;30784;48.490;9.688;2024-03-08T05:58:17;2.70;68.90
45044;DHT22;30784;48.490;9.688;2024-03-08T06:00:43;2.70;69.00
45044;DHT22;30784;48.490;9.688;2024-03-08T06:03:09;2.60;69.10
45044;DHT22;30784;48.490;9.688;2024-03-08T06:05:34;2.60;69.10
45044;DHT22;30784;48.490;9.688;2024-03-08T06:08:00;2.60;69.20
45044;DHT22;30784;48.490;9.688;2024-03-08T06:10:26;2.60;69.30
45044;DHT22;30784;48.490;9.688;2024-03-08T06:12:51;2.60;69.30
45044;DHT22;30784;48.490;9.688;2024-03-08T06:15:17;2.70;69.40
45044;DHT22;30784;48.490;9.688;2024-03-08T06:17:42;2.70;69.30
45044;DHT22;30784;48.490;9.688;2024-03-08T06:20:08;2.70;69.30
45044;DHT22;30784;48.490;9.688;2024-03-08T06:22:38;2.70;69.30
45044;DHT22;30784;48.490;9.688;2024-03-08T06:25:08;2.60;69.30
45044;DHT22;30784;48.490;9.688;2024-03-08T06:27:33;2.60;69.30
45044;DHT22;30784;48.490;9.688;2024-03-08T06:29:59;2.60;69.40
45044;DHT22;30784;48.490;9.688;2024-03-08T06:32:25;2.60;69.50
45044;DHT22;30784;48.490;9.688;2024-03-08T06:34:51;2.60;69.60
45044;DHT22;30784;48.490;9.688;2024-03-08T06:37:16;2.60;69.60
45044;DHT22;30784;48.490;9.688;2024-03-08T06:39:50;2.60;69.70
45044;DHT22;30784;48.490;9.688;2024-03-08T06:42:20;2.60;69.80
45044;DHT22;30784;48.490;9.688;2024-03-08T06:44:46;2.70;69.80
45044;DHT22;30784;48.490;9.688;2024-03-08T06:47:15;2.70;69.80
45044;DHT22;30784;48.490;9.688;2024-03-08T06:49:44;2.70;69.70
45044;DHT22;30784;48.490;9.688;2024-03-08T06:52:10;2.60;69.60
45044;DHT22;30784;48.490;9.688;2024-03-08T06:54:36;2.70;69.70
45044;DHT22;30784;48.490;9.688;2024-03-08T06:57:03;2.70;70.30
45044;DHT22;30784;48.490;9.688;2024-03-08T06:59:29;2.70;69.70
45044;DHT22;30784;48.490;9.688;2024-03-08T07:01:55;2.60;69.80
45044;DHT22;30784;48.490;9.688;2024-03-08T07:04:20;2.70;70.00
45044;DHT22;30784;48.490;9.688;2024-03-08T07:06:47;2.60;70.10
45044;DHT22;30784;48.490;9.688;2024-03-08T07:09:15;2.70;70.20
45044;DHT22;30784;48.490;9.688;2024-03-08T07:11:42;2.70;70.10
45044;DHT22;30784;48.490;9.688;2024-03-08T07:14:08;2.70;70.20
45044;DHT22;30784;48.490;9.688;2024-03-08T07:16:34;2.70;70.20
45044;DHT22;30784;48.490;9.688;2024-03-08T07:19:01;2.70;70.30
45044;DHT22;30784;48.490;9.688;2024-03-08T07:21:26;2.80;70.20
45044;DHT22;30784;48.490;9.688;2024-03-08T07:23:52;2.80;70.10
45044;DHT22;30784;48.490;9.688;2024-03-08T07:26:27;2.80;70.10
45044;DHT22;30784;48.490;9.688;2024-03-08T07:28:53;2.80;70.10
45044;DHT22;30784;48.490;9.688;2024-03-08T07:31:20;2.80;70.20
45044;DHT22;30784;48.490;9.688;2024-03-08T07:34:00;2.80;70.20
45044;DHT22;30784;48.490;9.688;2024-03-08T07:36:25;2.80;70.10
45044;DHT22;30784;48.490;9.688;2024-03-08T07:38:51;2.90;70.00
45044;DHT22;30784;48.490;9.688;2024-03-08T07:41:17;2.80;70.10
45044;DHT22;30784;48.490;9.688;2024-03-08T07:43:42;2.90;70.20
45044;DHT22;30784;48.490;9.688;2024-03-08T07:46:09;2.90;70.10
45044;DHT22;30784;48.490;9.688;2024-03-08T07:48:35;2.90;70.10
45044;DHT22;30784;48.490;9.688;2024-03-08T07:51:02;2.90;70.10
45044;DHT22;30784;48.490;9.688;2024-03-08T07:53:28;2.80;70.10
45044;DHT22;30784;48.490;9.688;2024-03-08T07:55:54;2.80;70.20
45044;DHT22;30784;48.490;9.688;2024-03-08T07:58:19;2.90;70.30
45044;DHT22;30784;48.490;9.688;2024-03-08T08:00:45;2.90;70.20
45044;DHT22;30784;48.490;9.688;2024-03-08T08:03:11;2.90;70.20
45044;DHT22;30784;48.490;9.688;2024-03-08T08:05:38;2.90;70.20
45044;DHT22;30784;48.490;9.688;2024-03-08T08:08:05;2.90;70.20
45044;DHT22;30784;48.490;9.688;2024-03-08T08:10:32;2.90;70.30
45044;DHT22;30784;48.490;9.688;2024-03-08T08:12:58;2.90;70.30
45044;DHT22;30784;48.490;9.688;2024-03-08T08:15:24;2.90;70.40
45044;DHT22;30784;48.490;9.688;2024-03-08T08:17:49;3.00;70.40
45044;DHT22;30784;48.490;9.688;2024-03-08T08:20:15;3.00;70.50
45044;DHT22;30784;48.490;9.688;2024-03-08T08:22:41;3.00;70.50
45044;DHT22;30784;48.490;9.688;2024-03-08T08:25:08;3.00;70.30
45044;DHT22;30784;48.490;9.688;2024-03-08T08:27:34;3.10;70.10
45044;DHT22;30784;48.490;9.688;2024-03-08T08:30:02;3.10;70.00
45044;DHT22;30784;48.490;9.688;2024-03-08T08:32:36;3.10;69.90
45044;DHT22;30784;48.490;9.688;2024-03-08T08:35:03;3.10;69.90
45044;DHT22;30784;48.490;9.688;2024-03-08T08:37:30;3.00;69.90
45044;DHT22;30784;48.490;9.688;2024-03-08T08:39:56;3.00;70.00
45044;DHT22;30784;48.490;9.688;2024-03-08T08:42:23;3.10;70.20
45044;DHT22;30784;48.490;9.688;2024-03-08T08:44:48;3.10;70.20
45044;DHT22;30784;48.490;9.688;2024-03-08T08:47:16;3.10;70.30
45044;DHT22;30784;48.490;9.688;2024-03-08T08:49:44;3.10;70.30
45044;DHT22;30784;48.490;9.688;2024-03-08T08:52:11;3.10;70.40
45044;DHT22;30784;48.490;9.688;2024-03-08T08:54:37;3.10;70.30
45044;DHT22;30784;48.490;9.688;2024-03-08T08:57:02;3.20;70.10
45044;DHT22;30784;48.490;9.688;2024-03-08T08:59:33;3.20;70.00
45044;DHT22;30784;48.490;9.688;2024-03-08T09:02:04;3.20;70.00
45044;DHT22;30784;48.490;9.688;2024-03-08T09:04:29;3.20;70.10
45044;DHT22;30784;48.490;9.688;2024-03-08T09:06:56;3.20;70.20
45044;DHT22;30784;48.490;9.688;2024-03-08T09:09:22;3.20;70.10
45044;DHT22;30784;48.490;9.688;2024-03-08T09:11:48;3.20;70.00
45044;DHT22;30784;48.490;9.688;2024-03-08T09:14:15;3.20;70.10
45044;DHT22;30784;48.490;9.688;2024-03-08T09:16:40;3.20;70.10
45044;DHT22;30784;48.490;9.688;2024-03-08T09:19:07;3.20;70.10
45044;DHT22;30784;48.490;9.688;2024-03-08T09:21:33;3.30;70.30
45044;DHT22;30784;48.490;9.688;2024-03-08T09:24:00;3.30;70.20
45044;DHT22;30784;48.490;9.688;2024-03-08T09:26:26;3.30;70.00
45044;DHT22;30784;48.490;9.688;2024-03-08T09:28:52;3.30;69.90
45044;DHT22;30784;48.490;9.688;2024-03-08T09:31:17;3.30;69.90
45044;DHT22;30784;48.490;9.688;2024-03-08T09:33:43;3.30;70.00
45044;DHT22;30784;48.490;9.688;2024-03-08T09:36:09;3.40;70.00
45044;DHT22;30784;48.490;9.688;2024-03-08T09:38:34;3.40;70.00
45044;DHT22;30784;48.490;9.688;2024-03-08T09:41:00;3.40;70.10
45044;DHT22;30784;48.490;9.688;2024-03-08T09:43:28;3.40;70.20
45044;DHT22;30784;48.490;9.688;2024-03-08T09:45:53;3.40;69.90
45044;DHT22;30784;48.490;9.688;2024-03-08T09:48:21;3.40;69.70
45044;DHT22;30784;48.490;9.688;2024-03-08T09:50:47;3.40;69.60
45044;DHT22;30784;48.490;9.688;2024-03-08T09:53:13;3.40;69.60
45044;DHT22;30784;48.490;9.688;2024-03-08T09:55:39;3.40;69.60
45044;DHT22;30784;48.490;9.688;2024-03-08T09:58:08;3.40;69.70
45044;DHT22;30784;48.490;9.688;2024-03-08T10:00:54;3.40;69.90
45044;DHT22;30784;48.490;9.688;2024-03-08T10:03:23;3.50;69.80
45044;DHT22;30784;48.490;9.688;2024-03-08T10:05:48;3.50;69.80
45044;DHT22;30784;48.490;9.688;2024-03-08T10:08:14;3.50;69.80
45044;DHT22;30784;48.490;9.688;2024-03-08T10:10:39;3.50;69.80
45044;DHT22;30784;48.490;9.688;2024-03-08T10:13:06;3.50;69.70
45044;DHT22;30784;48.490;9.688;2024-03-08T10:15:33;3.50;69.80
45044;DHT22;30784;48.490;9.688;2024-03-08T10:17:59;3.60;69.80
45044;DHT22;30784;48.490;9.688;2024-03-08T10:20:24;3.60;69.80
45044;DHT22;30784;48.490;9.688;2024-03-08T10:22:51;3.70;69.70
45044;DHT22;30784;48.490;9.688;2024-03-08T10:25:19;3.70;69.60
45044;DHT22;30784;48.490;9.688;2024-03-08T10:27:44;3.70;69.50
45044;DHT22;30784;48.490;9.688;2024-03-08T10:30:14;3.70;69.30
45044;DHT22;30784;48.490;9.688;2024-03-08T10:32:40;3.70;69.20
45044;DHT22;30784;48.490;9.688;2024-03-08T10:35:07;3.80;69.40
45044;DHT22;30784;48.490;9.688;2024-03-08T10:37:38;3.80;69.50
45044;DHT22;30784;48.490;9.688;2024-03-08T10:40:10;3.80;69.40
45044;DHT22;30784;48.490;9.688;2024-03-08T10:45:30;3.90;69.50
45044;DHT22;30784;48.490;9.688;2024-03-08T10:50:53;3.90;69.40
45044;DHT22;30784;48.490;9.688;2024-03-08T10:53:19;4.00;69.30
45044;DHT22;30784;48.490;9.688;2024-03-08T10:55:49;4.00;69.30
45044;DHT22;30784;48.490;9.688;2024-03-08T10:58:19;4.00;69.10
45044;DHT22;30784;48.490;9.688;2024-03-08T11:00:47;4.10;69.10
45044;DHT22;30784;48.490;9.688;2024-03-08T11:06:10;4.10;68.70
45044;DHT22;30784;48.490;9.688;2024-03-08T11:08:39;4.20;68.60
45044;DHT22;30784;48.490;9.688;2024-03-08T11:11:05;4.20;68.70
45044;DHT22;30784;48.490;9.688;2024-03-08T11:13:39;4.20;68.80
45044;DHT22;30784;48.490;9.688;2024-03-08T11:16:12;4.20;68.90
45044;DHT22;30784;48.490;9.688;2024-03-08T11:19:05;4.20;68.80
45044;DHT22;30784;48.490;9.688;2024-03-08T11:21:32;4.20;68.80
45044;DHT22;30784;48.490;9.688;2024-03-08T11:24:12;4.30;68.80
45044;DHT22;30784;48.490;9.688;2024-03-08T11:26:42;4.30;68.80
45044;DHT22;30784;48.490;9.688;2024-03-08T11:32:14;4.40;68.70
45044;DHT22;30784;48.490;9.688;2024-03-08T11:34:42;4.40;68.70
45044;DHT22;30784;48.490;9.688;2024-03-08T11:37:14;4.40;68.70
45044;DHT22;30784;48.490;9.688;2024-03-08T11:39:47;4.50;68.80
45044;DHT22;30784;48.490;9.688;2024-03-08T11:42:16;4.50;68.70
45044;DHT22;30784;48.490;9.688;2024-03-08T11:44:45;4.50;68.50
45044;DHT22;30784;48.490;9.688;2024-03-08T11:47:11;4.60;68.30
45044;DHT22;30784;48.490;9.688;2024-03-08T11:49:38;4.60;68.30
45044;DHT22;30784;48.490;9.688;2024-03-08T11:52:04;4.60;68.30
45044;DHT22;30784;48.490;9.688;2024-03-08T11:54:30;4.60;67.80
45044;DHT22;30784;48.490;9.688;2024-03-08T11:56:59;4.60;67.80
45044;DHT22;30784;48.490;9.688;2024-03-08T11:59:30;4.60;67.60
45044;DHT22;30784;48.490;9.688;2024-03-08T12:02:03;4.60;67.50
45044;DHT22;30784;48.490;9.688;2024-03-08T12:04:29;4.70;67.70
45044;DHT22;30784;48.490;9.688;2024-03-08T12:06:59;4.70;67.70
45044;DHT22;30784;48.490;9.688;2024-03-08T12:09:26;4.70;67.80
45044;DHT22;30784;48.490;9.688;2024-03-08T12:11:51;4.70;68.20
45044;DHT22;30784;48.490;9.688;2024-03-08T12:14:17;4.80;67.90
45044;DHT22;30784;48.490;9.688;2024-03-08T12:16:43;4.80;67.90
45044;DHT22;30784;48.490;9.688;2024-03-08T12:19:10;4.80;67.90
45044;DHT22;30784;48.490;9.688;2024-03-08T12:21:36;4.90;67.70
45044;DHT22;30784;48.490;9.688;2024-03-08T12:24:03;4.90;67.70
45044;DHT22;30784;48.490;9.688;2024-03-08T12:26:29;5.00;67.80
45044;DHT22;30784;48.490;9.688;2024-03-08T12:29:18;5.00;67.70
45044;DHT22;30784;48.490;9.688;2024-03-08T12:31:46;5.10;67.80
45044;DHT22;30784;48.490;9.688;2024-03-08T12:34:12;5.10;67.30
45044;DHT22;30784;48.490;9.688;2024-03-08T12:36:47;5.20;67.50
45044;DHT22;30784;48.490;9.688;2024-03-08T12:39:15;5.20;67.40
45044;DHT22;30784;48.490;9.688;2024-03-08T12:41:41;5.30;67.20
45044;DHT22;30784;48.490;9.688;2024-03-08T12:44:07;5.30;67.40
45044;DHT22;30784;48.490;9.688;2024-03-08T12:46:37;5.40;67.40
45044;DHT22;30784;48.490;9.688;2024-03-08T12:49:08;5.50;67.60
45044;DHT22;30784;48.490;9.688;2024-03-08T12:51:34;5.60;67.60
45044;DHT22;30784;48.490;9.688;2024-03-08T12:54:01;5.80;67.30
45044;DHT22;30784;48.490;9.688;2024-03-08T12:56:33;5.90;66.40
45044;DHT22;30784;48.490;9.688;2024-03-08T12:58:59;6.00;66.50
45044;DHT22;30784;48.490;9.688;2024-03-08T13:01:25;6.10;66.30
45044;DHT22;30784;48.490;9.688;2024-03-08T13:03:52;6.30;65.90
45044;DHT22;30784;48.490;9.688;2024-03-08T13:06:18;6.50;66.00
45044;DHT22;30784;48.490;9.688;2024-03-08T13:08:47;6.60;65.10
45044;DHT22;30784;48.490;9.688;2024-03-08T13:11:13;6.70;65.10
45044;DHT22;30784;48.490;9.688;2024-03-08T13:13:40;6.90;65.50
45044;DHT22;30784;48.490;9.688;2024-03-08T13:16:08;7.00;64.80
45044;DHT22;30784;48.490;9.688;2024-03-08T13:18:35;7.10;64.20
45044;DHT22;30784;48.490;9.688;2024-03-08T13:21:00;7.30;64.20
45044;DHT22;30784;48.490;9.688;2024-03-08T13:23:32;7.40;63.60
45044;DHT22;30784;48.490;9.688;2024-03-08T13:25:57;7.50;63.80
45044;DHT22;30784;48.490;9.688;2024-03-08T13:28:23;7.60;63.50
45044;DHT22;30784;48.490;9.688;2024-03-08T13:30:53;7.70;63.70
45044;DHT22;30784;48.490;9.688;2024-03-08T13:33:19;7.80;62.90
45044;DHT22;30784;48.490;9.688;2024-03-08T13:35:45;8.00;63.50
45044;DHT22;30784;48.490;9.688;2024-03-08T13:38:12;8.10;63.20
45044;DHT22;30784;48.490;9.688;2024-03-08T13:40:38;8.30;62.70
45044;DHT22;30784;48.490;9.688;2024-03-08T13:45:36;8.60;61.60
45044;DHT22;30784;48.490;9.688;2024-03-08T13:48:04;8.80;61.70
45044;DHT22;30784;48.490;9.688;2024-03-08T13:50:30;8.90;61.70
45044;DHT22;30784;48.490;9.688;2024-03-08T13:52:56;9.00;60.60
45044;DHT22;30784;48.490;9.688;2024-03-08T13:55:22;9.10;59.80
45044;DHT22;30784;48.490;9.688;2024-03-08T13:57:48;9.20;59.80
45044;DHT22;30784;48.490;9.688;2024-03-08T14:00:14;9.30;59.20
45044;DHT22;30784;48.490;9.688;2024-03-08T14:02:40;9.40;59.20
45044;DHT22;30784;48.490;9.688;2024-03-08T14:05:07;9.50;58.80
45044;DHT22;30784;48.490;9.688;2024-03-08T14:07:35;9.60;58.60
45044;DHT22;30784;48.490;9.688;2024-03-08T14:10:00;9.60;58.60
45044;DHT22;30784;48.490;9.688;2024-03-08T14:12:26;9.70;58.40
45044;DHT22;30784;48.490;9.688;2024-03-08T14:14:52;9.80;57.90
45044;DHT22;30784;48.490;9.688;2024-03-08T14:17:18;9.90;57.70
45044;DHT22;30784;48.490;9.688;2024-03-08T14:19:43;10.00;57.80
45044;DHT22;30784;48.490;9.688;2024-03-08T14:22:09;10.00;58.10
45044;DHT22;30784;48.490;9.688;2024-03-08T14:24:40;10.10;57.10
45044;DHT22;30784;48.490;9.688;2024-03-08T14:27:07;10.20;57.30
45044;DHT22;30784;48.490;9.688;2024-03-08T14:29:35;10.30;57.40
45044;DHT22;30784;48.490;9.688;2024-03-08T14:32:01;10.40;56.70
45044;DHT22;30784;48.490;9.688;2024-03-08T14:34:28;10.40;56.20
45044;DHT22;30784;48.490;9.688;2024-03-08T14:36:56;10.50;55.90
45044;DHT22;30784;48.490;9.688;2024-03-08T14:39:21;10.50;56.20
45044;DHT22;30784;48.490;9.688;2024-03-08T14:41:52;10.60;55.90
45044;DHT22;30784;48.490;9.688;2024-03-08T14:44:19;10.60;56.20
45044;DHT22;30784;48.490;9.688;2024-03-08T14:46:45;10.70;55.50
45044;DHT22;30784;48.490;9.688;2024-03-08T14:49:11;10.70;55.40
45044;DHT22;30784;48.490;9.688;2024-03-08T14:51:42;10.80;55.20
45044;DHT22;30784;48.490;9.688;2024-03-08T14:54:07;10.80;55.00
45044;DHT22;30784;48.490;9.688;2024-03-08T14:56:36;10.80;54.60
45044;DHT22;30784;48.490;9.688;2024-03-08T14:59:02;10.80;54.70
45044;DHT22;30784;48.490;9.688;2024-03-08T15:01:30;10.80;54.10
45044;DHT22;30784;48.490;9.688;2024-03-08T15:03:58;10.80;54.30
45044;DHT22;30784;48.490;9.688;2024-03-08T15:06:29;10.80;54.30
45044;DHT22;30784;48.490;9.688;2024-03-08T15:08:56;10.80;54.10
45044;DHT22;30784;48.490;9.688;2024-03-08T15:11:23;10.80;54.40
45044;DHT22;30784;48.490;9.688;2024-03-08T15:13:50;10.80;54.30
45044;DHT22;30784;48.490;9.688;2024-03-08T15:16:19;10.90;54.20
45044;DHT22;30784;48.490;9.688;2024-03-08T15:18:46;10.90;54.10
45044;DHT22;30784;48.490;9.688;2024-03-08T15:21:17;10.90;54.10
45044;DHT22;30784;48.490;9.688;2024-03-08T15:23:45;10.80;54.10
45044;DHT22;30784;48.490;9.688;2024-03-08T15:26:19;10.90;53.90
45044;DHT22;30784;48.490;9.688;2024-03-08T15:28:45;10.80;53.70
45044;DHT22;30784;48.490;9.688;2024-03-08T15:31:14;10.90;53.60
45044;DHT22;30784;48.490;9.688;2024-03-08T15:33:41;10.80;53.70
45044;DHT22;30784;48.490;9.688;2024-03-08T15:36:11;10.80;53.60
45044;DHT22;30784;48.490;9.688;2024-03-08T15:38:39;10.80;53.90
45044;DHT22;30784;48.490;9.688;2024-03-08T15:41:05;10.80;53.50
45044;DHT22;30784;48.490;9.688;2024-03-08T15:43:38;10.80;53.30
45044;DHT22;30784;48.490;9.688;2024-03-08T15:46:05;10.80;53.20
45044;DHT22;30784;48.490;9.688;2024-03-08T15:48:35;10.80;53.40
45044;DHT22;30784;48.490;9.688;2024-03-08T15:51:04;10.80;53.30
45044;DHT22;30784;48.490;9.688;2024-03-08T15:53:33;10.70;53.50
45044;DHT22;30784;48.490;9.688;2024-03-08T15:56:00;10.70;53.50
45044;DHT22;30784;48.490;9.688;2024-03-08T15:58:26;10.70;53.30
45044;DHT22;30784;48.490;9.688;2024-03-08T16:00:52;10.70;53.30